createdAt,value
2019-03-29T00:00:30.112Z,183.37
2019-03-29T00:02:57.016Z,165.60
2019-03-29T00:05:23.745Z,170.38
2019-03-29T00:07:50.478Z,185.97
2019-03-29T00:10:17.249Z,175.60
2019-03-29T00:12:43.944Z,208.05
2019-03-29T00:15:10.722Z,214.40
2019-03-29T00:17:37.432Z,214.48
2019-03-29T00:20:06.254Z,221.93
2019-03-29T00:22:33.677Z,211.60
2019-03-29T00:25:00.391Z,210.00
2019-03-29T00:27:27.230Z,208.85
2019-03-29T00:29:53.960Z,205.30
2019-03-29T00:32:20.679Z,202.60
2019-03-29T00:34:47.452Z,197.50
2019-03-29T00:37:14.385Z,195.95
2019-03-29T00:39:53.615Z,188.97
2019-03-29T00:42:20.338Z,193.57
2019-03-29T00:44:56.026Z,182.53
2019-03-29T00:47:22.793Z,191.95
2019-03-29T00:49:55.009Z,187.70
2019-03-29T00:52:21.726Z,191.15
2019-03-29T00:54:52.257Z,172.55
2019-03-29T00:57:23.655Z,182.12
2019-03-29T00:59:56.540Z,198.62
2019-03-29T01:02:23.376Z,180.90
2019-03-29T01:04:50.214Z,203.70
2019-03-29T01:07:16.985Z,213.25
2019-03-29T01:09:43.822Z,226.15
2019-03-29T01:12:10.623Z,222.17
2019-03-29T01:14:37.375Z,214.95
2019-03-29T01:17:04.134Z,209.98
2019-03-29T01:19:30.876Z,219.75
2019-03-29T01:21:57.788Z,229.90
2019-03-29T01:24:24.631Z,229.28
2019-03-29T01:26:51.392Z,229.57
2019-03-29T01:29:18.183Z,217.28
2019-03-29T01:31:44.977Z,223.65
2019-03-29T01:34:11.673Z,227.38
2019-03-29T01:36:38.407Z,221.00
2019-03-29T01:39:05.260Z,237.23
2019-03-29T01:41:32.069Z,229.38
2019-03-29T01:44:04.871Z,242.47
2019-03-29T01:46:31.610Z,243.63
2019-03-29T01:48:58.369Z,235.75
2019-03-29T01:51:25.095Z,247.42
2019-03-29T01:53:51.824Z,227.13
2019-03-29T01:56:18.617Z,218.60
2019-03-29T01:58:45.320Z,220.95
2019-03-29T02:01:12.143Z,213.52
2019-03-29T02:03:39.986Z,216.53
2019-03-29T02:06:06.769Z,213.25
2019-03-29T02:08:35.868Z,215.15
2019-03-29T02:11:02.313Z,203.80
2019-03-29T02:13:29.061Z,204.35
2019-03-29T02:15:55.810Z,207.65
2019-03-29T02:18:22.723Z,191.00
2019-03-29T02:20:50.161Z,196.50
2019-03-29T02:23:17.224Z,194.02
2019-03-29T02:25:44.006Z,192.82
2019-03-29T02:28:10.735Z,191.75
2019-03-29T02:30:37.492Z,204.43
2019-03-29T02:33:04.290Z,200.55
2019-03-29T02:35:31.113Z,190.85
2019-03-29T02:37:57.830Z,205.65
2019-03-29T02:40:24.616Z,201.10
2019-03-29T02:42:51.379Z,195.82
2019-03-29T02:45:18.210Z,199.53
2019-03-29T02:47:44.966Z,207.25
2019-03-29T02:50:11.699Z,189.03
2019-03-29T02:52:38.528Z,187.90
2019-03-29T02:55:05.611Z,196.98
2019-03-29T02:57:32.397Z,198.60
2019-03-29T02:59:59.160Z,187.18
2019-03-29T03:02:26.713Z,187.97
2019-03-29T03:04:55.330Z,179.55
2019-03-29T03:07:22.328Z,177.70
2019-03-29T03:09:49.048Z,174.12
2019-03-29T03:12:15.880Z,170.72
2019-03-29T03:14:42.661Z,166.92
2019-03-29T03:17:09.476Z,185.57
2019-03-29T03:19:36.215Z,193.93
2019-03-29T03:22:03.010Z,412.42
2019-03-29T03:24:29.716Z,214.75
2019-03-29T03:26:56.798Z,263.62
2019-03-29T03:29:23.572Z,346.30
2019-03-29T03:31:50.319Z,200.15
2019-03-29T03:34:17.130Z,184.03
2019-03-29T03:36:43.974Z,183.80
2019-03-29T03:39:10.700Z,187.45
2019-03-29T03:41:37.440Z,202.62
2019-03-29T03:44:04.212Z,175.03
2019-03-29T03:46:31.097Z,172.55
2019-03-29T03:48:57.803Z,165.90
2019-03-29T03:51:24.556Z,173.00
2019-03-29T03:53:51.283Z,159.52
2019-03-29T03:56:18.272Z,159.00
2019-03-29T03:58:45.083Z,153.23
2019-03-29T04:01:11.885Z,156.85
2019-03-29T04:03:39.128Z,141.90
2019-03-29T04:06:05.991Z,143.15
2019-03-29T04:08:32.783Z,144.30
2019-03-29T04:10:59.648Z,146.02
2019-03-29T04:13:26.550Z,146.13
2019-03-29T04:15:53.314Z,146.02
2019-03-29T04:18:20.159Z,148.62
2019-03-29T04:20:47.037Z,151.72
2019-03-29T04:23:13.806Z,169.50
2019-03-29T04:25:40.561Z,147.82
2019-03-29T04:28:07.352Z,155.20
2019-03-29T04:30:34.161Z,144.68
2019-03-29T04:33:00.874Z,149.20
2019-03-29T04:35:27.841Z,140.88
2019-03-29T04:37:54.604Z,139.52
2019-03-29T04:40:21.378Z,147.50
2019-03-29T04:42:48.108Z,144.32
2019-03-29T04:45:14.931Z,139.30
2019-03-29T04:47:41.726Z,145.10
2019-03-29T04:50:09.005Z,151.60
2019-03-29T04:52:35.734Z,157.62
2019-03-29T04:55:04.295Z,163.47
2019-03-29T04:57:31.069Z,176.50
2019-03-29T04:59:57.811Z,174.40
2019-03-29T05:02:24.658Z,187.30
2019-03-29T05:04:51.466Z,190.50
2019-03-29T05:07:18.301Z,194.97
2019-03-29T05:09:45.101Z,178.20
2019-03-29T05:12:11.802Z,179.80
2019-03-29T05:14:38.621Z,167.82
2019-03-29T05:17:05.373Z,146.90
2019-03-29T05:19:32.109Z,150.93
2019-03-29T05:21:59.140Z,140.15
2019-03-29T05:24:26.043Z,140.80
2019-03-29T05:26:52.829Z,139.37
2019-03-29T05:29:19.618Z,135.52
2019-03-29T05:31:46.441Z,134.30
2019-03-29T05:34:13.192Z,132.67
2019-03-29T05:36:39.952Z,138.88
2019-03-29T05:39:07.108Z,133.00
2019-03-29T05:41:33.934Z,135.18
2019-03-29T05:44:00.723Z,138.25
2019-03-29T05:46:27.976Z,118.33
2019-03-29T05:48:54.720Z,137.57
2019-03-29T05:51:21.480Z,117.97
2019-03-29T05:53:48.303Z,122.33
2019-03-29T05:56:15.155Z,129.82
2019-03-29T05:58:41.936Z,125.00
2019-03-29T06:01:08.808Z,121.37
2019-03-29T06:03:35.549Z,118.85
2019-03-29T06:06:02.447Z,120.95
2019-03-29T06:08:30.834Z,119.15
2019-03-29T06:10:57.638Z,119.22
2019-03-29T06:13:24.381Z,113.62
2019-03-29T06:15:51.170Z,116.88
2019-03-29T06:18:17.903Z,111.77
2019-03-29T06:20:44.659Z,112.35
2019-03-29T06:23:11.398Z,108.20
2019-03-29T06:25:38.243Z,115.32
2019-03-29T06:28:05.203Z,123.38
2019-03-29T06:30:31.963Z,114.17
2019-03-29T06:32:58.726Z,116.35
2019-03-29T06:35:25.634Z,113.65
2019-03-29T06:37:52.358Z,112.65
2019-03-29T06:40:24.288Z,113.92
2019-03-29T06:42:51.192Z,111.20
2019-03-29T06:45:18.005Z,114.85
2019-03-29T06:47:44.943Z,118.57
2019-03-29T06:50:14.079Z,116.62
2019-03-29T06:52:40.403Z,115.22
2019-03-29T06:55:07.198Z,119.00
2019-03-29T06:57:33.977Z,116.40
2019-03-29T07:00:00.818Z,112.62
2019-03-29T07:02:27.660Z,120.40
2019-03-29T07:04:54.469Z,111.83
2019-03-29T07:07:21.254Z,116.10
2019-03-29T07:09:48.207Z,120.40
2019-03-29T07:12:15.054Z,119.57
2019-03-29T07:14:41.758Z,119.47
2019-03-29T07:17:10.289Z,115.32
2019-03-29T07:19:37.348Z,120.25
2019-03-29T07:22:04.132Z,124.82
2019-03-29T07:24:30.871Z,114.92
2019-03-29T07:26:57.688Z,117.47
2019-03-29T07:29:24.474Z,114.85
2019-03-29T07:31:53.176Z,128.62
2019-03-29T07:34:20.124Z,123.22
2019-03-29T07:36:46.843Z,116.85
2019-03-29T07:39:13.618Z,123.45
2019-03-29T07:41:40.481Z,115.42
2019-03-29T07:44:07.234Z,118.62
2019-03-29T07:46:34.080Z,121.13
2019-03-29T07:49:01.070Z,120.97
2019-03-29T07:51:29.958Z,122.17
2019-03-29T07:53:56.703Z,126.72
2019-03-29T07:56:23.477Z,125.33
2019-03-29T07:58:50.277Z,128.02
2019-03-29T08:01:17.078Z,129.75
2019-03-29T08:03:43.837Z,131.25
2019-03-29T08:06:11.291Z,131.22
2019-03-29T08:08:38.971Z,125.75
2019-03-29T08:11:06.178Z,131.72
2019-03-29T08:13:33.257Z,122.72
2019-03-29T08:16:00.313Z,122.33
2019-03-29T08:18:27.146Z,122.70
2019-03-29T08:20:53.864Z,116.93
2019-03-29T08:23:20.686Z,119.90
2019-03-29T08:25:47.544Z,123.18
2019-03-29T08:28:14.345Z,123.22
2019-03-29T08:30:41.225Z,124.70
2019-03-29T08:33:08.149Z,126.72
2019-03-29T08:35:34.932Z,122.20
2019-03-29T08:38:01.690Z,122.58
2019-03-29T08:40:29.293Z,128.15
2019-03-29T08:42:56.017Z,117.65
2019-03-29T08:45:22.796Z,122.05
2019-03-29T08:47:49.553Z,119.72
2019-03-29T08:50:16.349Z,120.17
2019-03-29T08:52:43.102Z,111.90
2019-03-29T08:55:11.753Z,107.72
2019-03-29T08:57:38.571Z,113.25
2019-03-29T09:00:05.625Z,107.67
2019-03-29T09:02:32.348Z,107.95
2019-03-29T09:04:59.329Z,96.53
2019-03-29T09:07:28.017Z,94.20
2019-03-29T09:09:55.126Z,91.82
2019-03-29T09:12:22.226Z,88.90
2019-03-29T09:14:49.011Z,90.62
2019-03-29T09:17:15.944Z,92.47
2019-03-29T09:19:43.303Z,85.97
2019-03-29T09:22:10.030Z,80.32
2019-03-29T09:24:36.809Z,77.40
2019-03-29T09:27:03.601Z,80.22
2019-03-29T09:29:30.317Z,77.72
2019-03-29T09:31:57.320Z,78.30
2019-03-29T09:34:24.277Z,71.75
2019-03-29T09:36:51.006Z,67.05
2019-03-29T09:39:17.784Z,79.50
2019-03-29T09:41:44.957Z,72.10
2019-03-29T09:44:11.751Z,56.00
2019-03-29T09:46:38.749Z,53.78
2019-03-29T09:49:08.269Z,54.53
2019-03-29T09:51:36.039Z,55.20
2019-03-29T09:54:03.216Z,57.37
2019-03-29T09:56:38.665Z,60.95
2019-03-29T09:58:59.112Z,66.60
2019-03-29T10:01:25.940Z,62.08
2019-03-29T10:03:52.806Z,60.15
2019-03-29T10:06:19.529Z,55.92
2019-03-29T10:08:46.360Z,55.23
2019-03-29T10:11:13.138Z,61.70
2019-03-29T10:13:40.322Z,57.38
2019-03-29T10:16:07.227Z,55.43
2019-03-29T10:18:34.135Z,55.17
2019-03-29T10:21:01.044Z,54.60
2019-03-29T10:23:27.962Z,48.35
2019-03-29T10:25:58.415Z,45.00
2019-03-29T10:28:24.898Z,46.33
2019-03-29T10:30:51.912Z,44.27
2019-03-29T10:33:18.848Z,36.00
2019-03-29T10:35:51.940Z,35.03
2019-03-29T10:38:18.318Z,35.43
2019-03-29T10:40:44.171Z,30.20
2019-03-29T10:43:11.040Z,30.68
2019-03-29T10:45:40.269Z,38.90
2019-03-29T10:48:06.715Z,32.60
2019-03-29T10:50:33.529Z,33.28
2019-03-29T10:53:00.378Z,30.70
2019-03-29T10:55:27.196Z,31.62
2019-03-29T10:57:54.062Z,29.42
2019-03-29T11:00:32.885Z,28.15
2019-03-29T11:02:59.575Z,31.62
2019-03-29T11:05:26.778Z,41.58
2019-03-29T11:07:53.684Z,40.78
2019-03-29T11:10:27.296Z,31.48
2019-03-29T11:12:54.586Z,30.05
2019-03-29T11:15:21.504Z,28.70
2019-03-29T11:17:48.440Z,26.23
2019-03-29T11:20:18.436Z,26.45
2019-03-29T11:22:43.850Z,25.80
2019-03-29T11:25:10.635Z,25.23
2019-03-29T11:27:37.360Z,24.07
2019-03-29T11:30:05.369Z,23.00
2019-03-29T11:32:32.133Z,26.68
2019-03-29T11:34:58.875Z,26.90
2019-03-29T11:37:25.723Z,23.15
2019-03-29T11:39:52.655Z,26.35
2019-03-29T11:42:19.432Z,22.98
2019-03-29T11:44:46.198Z,25.85
2019-03-29T11:47:12.985Z,25.90
2019-03-29T11:49:42.173Z,28.80
2019-03-29T11:52:08.945Z,26.42
2019-03-29T11:54:35.755Z,37.13
2019-03-29T11:57:02.614Z,29.00
2019-03-29T11:59:29.415Z,30.60
2019-03-29T12:01:56.260Z,33.80
2019-03-29T12:04:23.131Z,36.50
2019-03-29T12:06:49.837Z,36.48
2019-03-29T12:09:16.582Z,34.83
2019-03-29T12:11:43.332Z,38.05
2019-03-29T12:14:10.196Z,36.53
2019-03-29T12:16:37.063Z,38.35
2019-03-29T12:19:03.840Z,39.90
2019-03-29T12:21:30.663Z,50.52
2019-03-29T12:23:57.430Z,46.10
2019-03-29T12:26:24.452Z,51.40
2019-03-29T12:28:51.327Z,51.95
2019-03-29T12:31:18.099Z,50.48
2019-03-29T12:33:44.849Z,52.35
2019-03-29T12:36:11.788Z,55.35
2019-03-29T12:38:38.561Z,58.85
2019-03-29T12:41:06.922Z,53.68
2019-03-29T12:43:33.656Z,52.35
2019-03-29T12:46:00.669Z,58.40
2019-03-29T12:48:27.623Z,57.85
2019-03-29T12:50:54.425Z,55.98
2019-03-29T12:53:21.242Z,67.20
2019-03-29T12:55:48.062Z,66.55
2019-03-29T12:58:14.816Z,64.35
2019-03-29T13:00:41.590Z,64.50
2019-03-29T13:03:08.694Z,60.30
2019-03-29T13:05:35.566Z,59.73
2019-03-29T13:08:02.359Z,53.95
2019-03-29T13:10:29.130Z,52.78
2019-03-29T13:12:56.060Z,52.80
2019-03-29T13:15:23.031Z,50.98
2019-03-29T13:17:50.007Z,47.33
2019-03-29T13:20:16.826Z,53.02
2019-03-29T13:22:43.600Z,51.68
2019-03-29T13:25:10.362Z,52.45
2019-03-29T13:27:37.261Z,50.38
2019-03-29T13:30:06.365Z,52.53
2019-03-29T13:32:33.579Z,48.75
2019-03-29T13:35:00.677Z,43.70
2019-03-29T13:37:27.436Z,45.30
2019-03-29T13:39:54.277Z,42.00
2019-03-29T13:42:21.193Z,45.70
2019-03-29T13:44:47.976Z,41.08
2019-03-29T13:47:17.793Z,42.90
2019-03-29T13:49:43.441Z,40.40
2019-03-29T13:52:10.592Z,44.08
2019-03-29T13:54:37.342Z,37.03
2019-03-29T13:57:04.205Z,38.83
2019-03-29T13:59:31.980Z,38.15
2019-03-29T14:01:59.927Z,34.38
2019-03-29T14:04:26.727Z,34.08
2019-03-29T14:06:53.625Z,35.20
2019-03-29T14:09:20.589Z,34.67
2019-03-29T14:11:47.379Z,36.15
2019-03-29T14:14:14.193Z,34.13
2019-03-29T14:16:41.014Z,34.65
2019-03-29T14:19:07.984Z,42.88
2019-03-29T14:21:34.705Z,39.25
2019-03-29T14:24:03.121Z,36.33
2019-03-29T14:26:29.890Z,37.98
2019-03-29T14:28:56.879Z,37.53
2019-03-29T14:31:23.645Z,42.88
2019-03-29T14:33:50.370Z,38.65
2019-03-29T14:36:17.328Z,40.60
2019-03-29T14:38:44.206Z,38.45
2019-03-29T14:41:10.957Z,45.15
2019-03-29T14:43:37.856Z,42.08
2019-03-29T14:46:04.656Z,38.48
2019-03-29T14:48:31.374Z,37.75
2019-03-29T14:50:58.243Z,35.63
2019-03-29T14:53:24.961Z,36.58
2019-03-29T14:55:51.860Z,41.83
2019-03-29T14:58:18.604Z,34.18
2019-03-29T15:00:48.628Z,29.48
2019-03-29T15:03:14.217Z,30.15
2019-03-29T15:05:41.178Z,32.75
2019-03-29T15:08:08.249Z,28.75
2019-03-29T15:10:35.068Z,28.32
2019-03-29T15:13:01.871Z,31.70
2019-03-29T15:15:28.701Z,33.78
2019-03-29T15:17:55.550Z,30.43
2019-03-29T15:20:22.339Z,30.65
2019-03-29T15:22:49.149Z,31.45
2019-03-29T15:25:16.016Z,28.42
2019-03-29T15:27:42.868Z,31.68
2019-03-29T15:30:09.950Z,34.25
2019-03-29T15:32:36.838Z,33.63
2019-03-29T15:35:05.229Z,29.42
2019-03-29T15:37:32.031Z,30.90
2019-03-29T15:39:58.916Z,28.73
2019-03-29T15:42:25.715Z,31.45
2019-03-29T15:44:52.575Z,32.98
2019-03-29T15:47:19.363Z,30.35
2019-03-29T15:49:55.791Z,33.78
2019-03-29T15:52:15.042Z,31.27
2019-03-29T15:54:41.767Z,37.42
2019-03-29T15:57:08.644Z,31.15
2019-03-29T15:59:35.484Z,30.80
2019-03-29T16:02:02.398Z,33.48
2019-03-29T16:04:29.431Z,33.90
2019-03-29T16:06:56.342Z,30.00
2019-03-29T16:09:23.196Z,33.60
2019-03-29T16:11:49.956Z,33.78
2019-03-29T16:14:16.950Z,32.58
2019-03-29T16:16:45.991Z,33.15
2019-03-29T16:19:13.115Z,31.85
2019-03-29T16:21:41.777Z,32.15
2019-03-29T16:24:08.684Z,32.90
2019-03-29T16:26:35.442Z,29.37
2019-03-29T16:29:02.190Z,32.00
2019-03-29T16:31:29.023Z,33.08
2019-03-29T16:33:55.943Z,32.08
2019-03-29T16:36:22.760Z,33.23
2019-03-29T16:38:49.581Z,31.30
2019-03-29T16:41:16.758Z,31.48
2019-03-29T16:43:43.525Z,32.38
2019-03-29T16:46:10.280Z,32.48
2019-03-29T16:48:38.091Z,33.23
2019-03-29T16:51:04.826Z,30.27
2019-03-29T16:53:33.339Z,29.40
2019-03-29T16:56:00.219Z,35.45
2019-03-29T16:58:26.970Z,37.48
2019-03-29T17:00:53.789Z,33.65
2019-03-29T17:03:20.579Z,31.45
2019-03-29T17:05:47.332Z,34.27
2019-03-29T17:08:14.060Z,32.75
2019-03-29T17:10:41.011Z,30.02
2019-03-29T17:13:07.699Z,31.77
2019-03-29T17:15:34.658Z,29.25
2019-03-29T17:18:01.626Z,30.90
2019-03-29T17:20:28.409Z,28.62
2019-03-29T17:22:55.399Z,28.85
2019-03-29T17:25:22.165Z,30.02
2019-03-29T17:27:52.035Z,34.95
2019-03-29T17:30:21.462Z,35.92
2019-03-29T17:32:48.227Z,29.95
2019-03-29T17:35:15.065Z,31.25
2019-03-29T17:37:41.889Z,38.33
2019-03-29T17:40:08.956Z,31.05
2019-03-29T17:42:35.669Z,37.38
2019-03-29T17:45:05.484Z,42.80
2019-03-29T17:47:32.634Z,36.30
2019-03-29T17:49:59.479Z,39.00
2019-03-29T17:52:26.250Z,42.70
2019-03-29T17:54:53.151Z,38.53
2019-03-29T17:57:20.039Z,39.55
2019-03-29T17:59:46.850Z,38.55
2019-03-29T18:02:13.730Z,42.27
2019-03-29T18:04:40.486Z,42.00
2019-03-29T18:07:07.401Z,47.30
2019-03-29T18:09:34.283Z,45.65
2019-03-29T18:12:01.106Z,46.98
2019-03-29T18:14:29.214Z,52.98
2019-03-29T18:16:56.124Z,54.40
2019-03-29T18:19:22.981Z,51.85
2019-03-29T18:21:49.892Z,51.08
2019-03-29T18:24:16.984Z,52.15
2019-03-29T18:26:43.861Z,54.13
2019-03-29T18:29:10.677Z,58.60
2019-03-29T18:31:38.763Z,62.73
2019-03-29T18:34:05.479Z,64.77
2019-03-29T18:36:32.291Z,62.75
2019-03-29T18:38:59.107Z,67.40
2019-03-29T18:41:25.858Z,64.47
2019-03-29T18:43:52.576Z,73.72
2019-03-29T18:46:19.556Z,68.90
2019-03-29T18:48:46.340Z,66.80
2019-03-29T18:51:13.251Z,69.82
2019-03-29T18:53:40.067Z,71.15
2019-03-29T18:56:06.881Z,68.42
2019-03-29T18:58:33.711Z,74.50
2019-03-29T19:01:00.580Z,75.85
2019-03-29T19:03:27.622Z,77.53
2019-03-29T19:05:54.426Z,82.25
2019-03-29T19:08:23.407Z,74.47
2019-03-29T19:10:50.155Z,82.17
2019-03-29T19:13:17.024Z,81.42
2019-03-29T19:15:43.892Z,82.27
2019-03-29T19:18:10.636Z,90.85
2019-03-29T19:20:37.414Z,82.85
2019-03-29T19:23:04.153Z,83.80
2019-03-29T19:25:31.006Z,83.60
2019-03-29T19:27:57.979Z,84.28
2019-03-29T19:30:24.723Z,84.87
2019-03-29T19:32:51.484Z,84.17
2019-03-29T19:35:18.373Z,84.52
2019-03-29T19:37:45.109Z,78.33
2019-03-29T19:40:14.113Z,80.85
2019-03-29T19:42:40.967Z,83.15
2019-03-29T19:45:08.798Z,87.37
2019-03-29T19:47:35.704Z,85.20
2019-03-29T19:50:03.118Z,81.12
2019-03-29T19:52:30.105Z,87.90
2019-03-29T19:54:56.940Z,82.05
2019-03-29T19:57:23.751Z,77.22
2019-03-29T19:59:50.521Z,83.65
2019-03-29T20:02:17.429Z,88.40
2019-03-29T20:04:44.181Z,82.62
2019-03-29T20:07:11.156Z,87.27
2019-03-29T20:09:38.081Z,85.07
2019-03-29T20:12:04.927Z,87.90
2019-03-29T20:14:31.979Z,86.00
2019-03-29T20:16:58.797Z,82.70
2019-03-29T20:19:25.750Z,89.77
2019-03-29T20:21:52.709Z,87.40
2019-03-29T20:24:19.972Z,88.97
2019-03-29T20:26:46.789Z,87.35
2019-03-29T20:29:13.587Z,97.00
2019-03-29T20:31:40.458Z,90.30
2019-03-29T20:34:07.257Z,98.30
2019-03-29T20:36:34.156Z,96.17
2019-03-29T20:39:01.585Z,97.95
2019-03-29T20:41:28.373Z,96.45
2019-03-29T20:43:55.115Z,99.42
2019-03-29T20:46:21.853Z,97.25
2019-03-29T20:48:48.702Z,100.97
2019-03-29T20:51:15.640Z,101.00
2019-03-29T20:53:43.806Z,101.72
2019-03-29T20:56:10.824Z,102.97
2019-03-29T20:58:37.667Z,102.32
2019-03-29T21:01:04.448Z,109.87
2019-03-29T21:03:31.261Z,101.42
2019-03-29T21:05:58.035Z,100.90
2019-03-29T21:08:24.776Z,102.78
2019-03-29T21:10:56.243Z,97.12
2019-03-29T21:13:20.211Z,102.67
2019-03-29T21:15:47.119Z,94.77
2019-03-29T21:18:17.246Z,98.30
2019-03-29T21:20:42.697Z,92.75
2019-03-29T21:23:09.459Z,96.67
2019-03-29T21:25:36.236Z,98.10
2019-03-29T21:28:03.089Z,95.12
2019-03-29T21:30:29.870Z,103.15
2019-03-29T21:32:56.818Z,105.80
2019-03-29T21:35:23.550Z,101.67
2019-03-29T21:37:50.280Z,96.30
2019-03-29T21:40:17.234Z,106.03
2019-03-29T21:42:44.063Z,91.55
2019-03-29T21:45:10.795Z,100.38
2019-03-29T21:47:37.664Z,99.70
2019-03-29T21:50:07.682Z,94.90
2019-03-29T21:55:01.390Z,102.40
2019-03-29T21:57:28.306Z,95.90
2019-03-29T21:59:55.131Z,100.47
2019-03-29T22:02:22.014Z,105.83
2019-03-29T22:04:48.739Z,102.05
2019-03-29T22:07:15.538Z,105.85
2019-03-29T22:09:42.366Z,108.90
2019-03-29T22:12:09.221Z,103.55
2019-03-29T22:14:35.967Z,100.67
2019-03-29T22:17:02.918Z,109.63
2019-03-29T22:19:30.049Z,103.30
2019-03-29T22:21:56.817Z,112.00
2019-03-29T22:24:23.698Z,104.27
2019-03-29T22:26:50.535Z,110.83
2019-03-29T22:29:17.424Z,103.55
2019-03-29T22:31:44.210Z,103.97
2019-03-29T22:34:10.933Z,107.05
2019-03-29T22:36:37.938Z,103.20
2019-03-29T22:39:06.304Z,103.72
2019-03-29T22:41:33.060Z,102.92
2019-03-29T22:43:59.761Z,103.40
2019-03-29T22:46:26.616Z,104.43
2019-03-29T22:48:53.605Z,96.02
2019-03-29T22:51:20.286Z,99.03
2019-03-29T22:53:47.208Z,107.03
2019-03-29T22:56:13.992Z,98.82
2019-03-29T22:58:40.876Z,97.92
2019-03-29T23:01:07.738Z,98.82
2019-03-29T23:03:34.478Z,102.10
2019-03-29T23:06:01.280Z,108.35
2019-03-29T23:08:28.032Z,101.50
2019-03-29T23:10:54.806Z,101.65
2019-03-29T23:13:21.652Z,104.78
2019-03-29T23:15:48.490Z,108.20
2019-03-29T23:18:15.298Z,103.85
2019-03-29T23:20:42.084Z,102.40
2019-03-29T23:23:08.898Z,108.83
2019-03-29T23:27:58.236Z,116.80
2019-03-29T23:30:25.093Z,113.97
2019-03-29T23:32:51.884Z,114.50
2019-03-29T23:35:18.824Z,117.57
2019-03-29T23:37:45.632Z,126.12
2019-03-29T23:40:12.432Z,123.95
2019-03-29T23:42:39.343Z,128.20
2019-03-29T23:45:06.232Z,125.65
2019-03-29T23:47:32.972Z,114.95
2019-03-29T23:49:59.704Z,116.22
2019-03-29T23:52:26.869Z,118.05
2019-03-29T23:54:53.598Z,117.95
2019-03-29T23:57:20.433Z,112.45
2019-03-29T23:59:47.370Z,127.62
